Time;durP1;ratioP1;P1;durP2;ratioP2;P2;SDS_P1;SDS_P2;PMS_P1;PMS_P2;Temp;Humidity;BMP_temperature;BMP_pressure;BME280_temperature;BME280_humidity;BME280_pressure;Samples;Min_cycle;Max_cycle;Signal;HPM_P1;HPM_P2
2022/01/04 00:00:37;;;;;;;1.85;0.80;;;8.20;99.90;;;;;;4958491;28;20019;-85
2022/01/04 00:03:03;;;;;;;0.85;0.40;;;8.10;99.90;;;;;;4961307;28;20034;-86
2022/01/04 00:05:29;;;;;;;1.90;0.60;;;8.10;99.90;;;;;;4961944;28;20086;-86
2022/01/04 00:07:54;;;;;;;2.08;0.45;;;8.00;99.90;;;;;;4948469;28;20026;-85
2022/01/04 00:10:22;;;;;;;0.95;0.68;;;8.10;99.90;;;;;;4946393;28;20497;-86
2022/01/04 00:15:35;;;;;;;2.50;0.57;;;8.10;99.90;;;;;;4968050;28;20093;-85
2022/01/04 00:18:00;;;;;;;3.22;0.68;;;8.00;99.90;;;;;;4947640;28;20557;-86
2022/01/04 00:20:26;;;;;;;2.55;0.50;;;8.10;99.90;;;;;;4962410;28;20035;-85
2022/01/04 00:22:52;;;;;;;2.40;0.63;;;8.10;99.90;;;;;;4946584;28;20521;-85
2022/01/04 00:25:18;;;;;;;1.27;0.57;;;8.00;99.90;;;;;;4976390;28;20109;-85
2022/01/04 00:27:43;;;;;;;1.40;0.20;;;8.10;99.90;;;;;;4947894;28;20134;-85
2022/01/04 00:30:09;;;;;;;1.55;0.55;;;8.00;99.90;;;;;;4950276;28;20088;-85
2022/01/04 00:32:35;;;;;;;2.65;0.80;;;8.00;99.90;;;;;;4959812;28;20026;-86
2022/01/04 00:35:01;;;;;;;1.80;0.70;;;8.00;99.90;;;;;;4952730;28;20588;-85
2022/01/04 00:37:26;;;;;;;1.00;0.35;;;8.00;99.90;;;;;;4961656;28;20504;-85
2022/01/04 00:39:52;;;;;;;2.80;0.60;;;8.00;99.90;;;;;;4946140;28;20034;-85
2022/01/04 00:42:17;;;;;;;3.25;0.77;;;7.90;99.90;;;;;;4947123;28;20042;-85
2022/01/04 00:44:43;;;;;;;0.57;0.50;;;7.80;99.90;;;;;;4947359;28;20089;-85
2022/01/04 00:47:09;;;;;;;3.60;0.80;;;8.00;99.90;;;;;;4979882;28;20613;-85
2022/01/04 00:49:35;;;;;;;1.85;0.65;;;7.90;99.90;;;;;;4966250;28;20034;-85
2022/01/04 00:52:01;;;;;;;1.60;0.80;;;7.80;99.90;;;;;;4949202;28;20482;-85
2022/01/04 00:54:27;;;;;;;2.85;0.77;;;8.00;99.90;;;;;;4954008;28;20034;-85
2022/01/04 00:56:52;;;;;;;3.35;1.05;;;7.90;99.90;;;;;;4950727;28;20458;-85
2022/01/04 00:59:18;;;;;;;3.22;1.88;;;7.90;99.90;;;;;;4951035;28;20100;-84
2022/01/04 01:01:44;;;;;;;2.47;1.60;;;7.90;99.90;;;;;;4966698;28;20046;-84
2022/01/04 01:04:09;;;;;;;2.42;1.27;;;7.90;99.90;;;;;;4966953;28;20059;-84
2022/01/04 01:06:35;;;;;;;2.58;1.27;;;7.90;99.90;;;;;;4964432;28;20026;-84
2022/01/04 01:09:00;;;;;;;2.67;1.60;;;7.90;99.90;;;;;;4942127;28;20042;-84
2022/01/04 01:11:26;;;;;;;2.72;1.33;;;7.90;99.90;;;;;;4945874;28;20039;-84
2022/01/04 01:13:52;;;;;;;4.65;2.30;;;7.80;99.90;;;;;;4961268;28;20081;-84
2022/01/04 01:16:17;;;;;;;3.13;1.77;;;7.90;99.90;;;;;;4961300;28;20038;-84
2022/01/04 01:18:43;;;;;;;2.03;1.50;;;7.80;99.90;;;;;;4963475;28;20027;-84
2022/01/04 01:21:09;;;;;;;5.65;1.80;;;7.70;99.90;;;;;;4958467;28;20035;-84
2022/01/04 01:23:34;;;;;;;5.45;1.65;;;7.80;99.90;;;;;;4945412;28;21509;-84
2022/01/04 01:26:00;;;;;;;3.45;1.48;;;7.80;99.90;;;;;;4945018;28;20499;-84
2022/01/04 01:28:26;;;;;;;4.78;2.05;;;7.80;99.90;;;;;;4948428;28;20033;-84
2022/01/04 01:30:52;;;;;;;3.05;2.35;;;7.80;99.90;;;;;;4944998;28;20041;-84
2022/01/04 01:33:17;;;;;;;5.45;1.60;;;7.80;99.90;;;;;;4947643;28;20039;-84
2022/01/04 01:35:43;;;;;;;3.05;1.63;;;7.80;99.90;;;;;;4943040;28;20034;-84
2022/01/04 01:38:10;;;;;;;6.32;1.77;;;7.70;99.90;;;;;;4961660;28;20030;-84
2022/01/04 01:40:36;;;;;;;3.35;1.80;;;7.70;99.90;;;;;;4966082;28;20046;-84
2022/01/04 01:43:03;;;;;;;3.70;2.78;;;7.60;99.90;;;;;;4951238;28;20509;-84
2022/01/04 01:45:28;;;;;;;3.00;1.55;;;7.70;99.90;;;;;;4947685;28;20066;-83
2022/01/04 01:47:54;;;;;;;3.83;2.35;;;7.60;99.90;;;;;;4946462;28;20065;-84
2022/01/04 01:50:20;;;;;;;2.78;1.88;;;7.60;99.90;;;;;;4948976;28;20038;-84
2022/01/04 01:52:47;;;;;;;7.05;3.10;;;7.60;99.90;;;;;;4948287;28;20089;-84
2022/01/04 01:55:13;;;;;;;5.07;2.92;;;7.60;99.90;;;;;;4951164;28;20659;-84
2022/01/04 01:57:39;;;;;;;5.40;2.25;;;7.60;99.90;;;;;;4942877;28;20038;-84
2022/01/04 02:00:07;;;;;;;7.03;2.42;;;7.60;99.90;;;;;;4943326;28;20035;-84
2022/01/04 02:02:33;;;;;;;6.15;2.65;;;7.60;99.90;;;;;;4961034;28;20042;-84
2022/01/04 02:04:58;;;;;;;4.07;2.95;;;7.50;99.90;;;;;;4946760;28;20038;-84
2022/01/04 02:07:24;;;;;;;4.47;3.05;;;7.50;99.90;;;;;;4949383;28;20035;-84
2022/01/04 02:10:02;;;;;;;6.15;2.53;;;7.50;99.90;;;;;;4955706;28;20502;-84
2022/01/04 02:12:27;;;;;;;4.38;2.55;;;7.50;99.90;;;;;;4968681;28;20101;-83
2022/01/04 02:14:54;;;;;;;3.28;2.42;;;7.50;99.90;;;;;;4942056;28;20445;-84
2022/01/04 02:17:20;;;;;;;4.18;2.38;;;7.50;99.90;;;;;;4977682;28;20094;-84
2022/01/04 02:19:45;;;;;;;5.43;2.40;;;7.50;99.90;;;;;;4954820;28;20042;-83
2022/01/04 02:22:11;;;;;;;5.68;2.83;;;7.50;99.90;;;;;;4950767;28;20085;-84
2022/01/04 02:24:36;;;;;;;3.72;1.40;;;7.50;99.90;;;;;;4950130;28;20034;-84
2022/01/04 02:27:02;;;;;;;3.42;2.10;;;7.50;99.90;;;;;;4950246;28;20041;-84
2022/01/04 02:29:28;;;;;;;2.38;1.27;;;7.50;99.90;;;;;;4963895;28;20053;-84
2022/01/04 02:31:54;;;;;;;4.28;1.30;;;7.50;99.90;;;;;;4976153;28;20057;-83
2022/01/04 02:34:20;;;;;;;4.15;2.53;;;7.50;99.90;;;;;;4949693;28;20038;-84
2022/01/04 02:36:45;;;;;;;5.10;1.73;;;7.50;99.90;;;;;;4966870;28;20462;-84
2022/01/04 02:39:11;;;;;;;4.32;2.25;;;7.40;99.90;;;;;;4943866;28;20045;-84
2022/01/04 02:41:37;;;;;;;4.45;2.67;;;7.40;99.90;;;;;;4948920;28;20406;-84
2022/01/04 02:44:03;;;;;;;2.72;1.77;;;7.40;99.90;;;;;;4949045;28;20019;-84
2022/01/04 02:46:29;;;;;;;3.95;2.90;;;7.40;99.90;;;;;;4951882;28;20486;-84
2022/01/04 02:48:55;;;;;;;3.92;2.22;;;7.30;99.90;;;;;;4949246;28;20043;-84
2022/01/04 02:51:20;;;;;;;2.63;1.25;;;7.40;99.90;;;;;;4946993;28;20073;-84
2022/01/04 02:53:46;;;;;;;6.10;3.13;;;7.40;99.90;;;;;;4953134;28;20055;-84
2022/01/04 02:56:13;;;;;;;4.88;2.60;;;7.40;99.90;;;;;;4963793;28;20045;-83
2022/01/04 02:58:39;;;;;;;11.57;3.28;;;7.40;99.90;;;;;;4948555;28;20035;-84
2022/01/04 03:01:04;;;;;;;4.28;1.95;;;7.40;99.90;;;;;;4948841;28;20031;-84
2022/01/04 03:03:30;;;;;;;4.97;3.00;;;7.40;99.90;;;;;;4979114;28;20086;-83
2022/01/04 03:05:56;;;;;;;7.07;2.97;;;7.40;99.90;;;;;;4954904;28;20415;-83
2022/01/04 03:08:22;;;;;;;5.25;2.63;;;7.40;99.90;;;;;;4949513;28;20078;-83
2022/01/04 03:10:48;;;;;;;7.53;3.70;;;7.30;99.90;;;;;;4949026;28;20097;-84
2022/01/04 03:13:16;;;;;;;4.82;2.30;;;7.40;99.90;;;;;;4978585;28;20026;-84
2022/01/04 03:15:42;;;;;;;5.22;3.03;;;7.40;99.90;;;;;;4966959;28;20117;-84
2022/01/04 03:18:08;;;;;;;6.93;2.63;;;7.40;99.90;;;;;;4944387;28;20042;-84
2022/01/04 03:20:34;;;;;;;3.60;2.40;;;7.40;99.90;;;;;;4953986;28;20038;-84
2022/01/04 03:22:59;;;;;;;4.25;3.05;;;7.40;99.90;;;;;;4961214;28;20455;-84
2022/01/04 03:25:25;;;;;;;5.75;2.90;;;7.40;99.90;;;;;;4980838;28;20040;-84
2022/01/04 03:27:50;;;;;;;4.93;2.88;;;7.40;99.90;;;;;;4953462;28;20090;-84
2022/01/04 03:30:16;;;;;;;3.75;2.60;;;7.40;99.90;;;;;;4943674;28;20034;-84
2022/01/04 03:32:42;;;;;;;5.18;3.22;;;7.40;99.90;;;;;;4980882;28;20037;-83
2022/01/04 03:35:07;;;;;;;5.13;2.92;;;7.40;99.90;;;;;;4960848;28;20589;-84
2022/01/04 03:37:33;;;;;;;3.45;2.50;;;7.40;99.90;;;;;;4962927;28;20034;-86
2022/01/04 03:39:59;;;;;;;5.47;2.53;;;7.40;99.90;;;;;;4949306;28;20054;-86
2022/01/04 03:42:24;;;;;;;3.95;2.60;;;7.40;99.90;;;;;;4967724;28;20093;-85
2022/01/04 03:44:50;;;;;;;6.15;3.70;;;7.30;99.90;;;;;;4966234;28;20054;-86
2022/01/04 03:47:15;;;;;;;4.82;3.15;;;7.30;99.90;;;;;;4948825;28;20114;-85
2022/01/04 03:49:41;;;;;;;4.70;2.60;;;7.30;99.90;;;;;;4962546;28;20056;-85
2022/01/04 03:52:06;;;;;;;4.95;3.38;;;7.40;99.90;;;;;;4980476;28;20728;-85
2022/01/04 03:54:32;;;;;;;4.78;2.88;;;7.30;99.90;;;;;;4948743;28;20390;-86
2022/01/04 03:56:57;;;;;;;4.30;2.90;;;7.30;99.90;;;;;;4946591;28;20055;-85
2022/01/04 03:59:23;;;;;;;6.78;3.45;;;7.30;99.90;;;;;;4950935;28;20061;-86
2022/01/04 04:01:49;;;;;;;5.60;3.13;;;7.40;99.90;;;;;;4965204;28;20520;-86
2022/01/04 04:04:16;;;;;;;4.57;3.40;;;7.40;99.90;;;;;;4950424;28;20529;-86
2022/01/04 04:06:42;;;;;;;3.22;1.52;;;7.30;99.90;;;;;;4967063;28;20062;-86
2022/01/04 04:09:07;;;;;;;4.88;3.20;;;7.30;99.90;;;;;;4964085;28;20146;-86
2022/01/04 04:11:33;;;;;;;5.10;2.80;;;7.30;99.90;;;;;;4946665;28;20457;-86
2022/01/04 04:13:59;;;;;;;5.90;2.80;;;7.30;99.90;;;;;;4959491;28;20026;-85
2022/01/04 04:16:24;;;;;;;4.60;1.48;;;7.30;99.90;;;;;;4964906;28;20054;-86
2022/01/04 04:18:50;;;;;;;4.85;2.83;;;7.30;99.90;;;;;;4962879;28;20019;-86
2022/01/04 04:21:15;;;;;;;4.70;3.33;;;7.30;99.90;;;;;;4962196;28;20141;-86
2022/01/04 04:23:41;;;;;;;5.38;2.97;;;7.40;99.90;;;;;;4980721;28;20034;-86
2022/01/04 04:26:07;;;;;;;5.80;2.58;;;7.30;99.90;;;;;;4946661;28;20039;-86
2022/01/04 04:28:32;;;;;;;6.55;2.20;;;7.30;99.90;;;;;;4964606;28;20023;-85
2022/01/04 04:30:59;;;;;;;2.72;1.77;;;7.30;99.90;;;;;;4978807;28;20038;-85
2022/01/04 04:33:24;;;;;;;6.82;3.45;;;7.30;99.90;;;;;;4951410;28;20579;-86
2022/01/04 04:35:50;;;;;;;4.30;2.70;;;7.20;99.90;;;;;;4962831;28;20080;-86
2022/01/04 04:38:15;;;;;;;9.55;4.15;;;7.20;99.90;;;;;;4964867;28;20028;-86
2022/01/04 04:40:41;;;;;;;2.90;2.05;;;7.20;99.90;;;;;;4961740;28;20478;-86
2022/01/04 04:43:06;;;;;;;3.63;2.65;;;7.20;99.90;;;;;;4955621;28;20050;-86
2022/01/04 04:45:32;;;;;;;5.55;3.17;;;7.20;99.90;;;;;;4957894;28;20022;-85
2022/01/04 04:47:57;;;;;;;7.38;3.58;;;7.30;99.90;;;;;;4948133;28;20376;-85
2022/01/04 04:50:23;;;;;;;3.65;2.38;;;7.20;99.90;;;;;;4961265;28;20057;-85
2022/01/04 04:52:48;;;;;;;4.35;3.22;;;7.20;99.90;;;;;;4951680;28;20030;-86
2022/01/04 04:55:14;;;;;;;4.95;2.80;;;7.20;99.90;;;;;;4950484;28;20042;-86
2022/01/04 04:57:40;;;;;;;4.75;3.05;;;7.20;99.90;;;;;;4960111;28;20074;-86
2022/01/04 05:00:08;;;;;;;7.95;3.20;;;7.20;99.90;;;;;;4963882;28;20475;-85
2022/01/04 05:02:33;;;;;;;4.55;2.80;;;7.20;99.90;;;;;;4946564;28;20120;-86
2022/01/04 05:04:59;;;;;;;6.35;3.10;;;7.20;99.90;;;;;;4961116;28;20073;-85
2022/01/04 05:07:26;;;;;;;7.22;3.25;;;7.20;99.90;;;;;;4958790;28;20041;-85
2022/01/04 05:09:51;;;;;;;7.95;3.70;;;7.20;99.90;;;;;;4962051;28;20495;-86
2022/01/04 05:12:17;;;;;;;4.28;2.95;;;7.20;99.90;;;;;;4944103;28;20038;-85
2022/01/04 05:14:46;;;;;;;4.75;2.90;;;7.20;99.90;;;;;;4978224;28;20045;-85
2022/01/04 05:17:14;;;;;;;6.43;3.67;;;7.20;99.90;;;;;;4951094;28;20050;-86
2022/01/04 05:19:40;;;;;;;5.55;3.45;;;7.20;99.90;;;;;;4953636;28;20037;-86
2022/01/04 05:22:05;;;;;;;8.07;3.75;;;7.20;99.90;;;;;;4955720;28;20407;-86
2022/01/04 05:24:31;;;;;;;3.65;2.78;;;7.20;99.90;;;;;;4972954;28;20121;-85
2022/01/04 05:26:57;;;;;;;7.32;4.10;;;7.20;99.90;;;;;;4952273;28;20027;-86
2022/01/04 05:29:22;;;;;;;6.97;4.65;;;7.20;99.90;;;;;;4945170;28;20042;-86
2022/01/04 05:31:48;;;;;;;4.63;2.80;;;7.20;99.90;;;;;;4943938;28;20031;-86
2022/01/04 05:34:14;;;;;;;8.25;3.97;;;7.10;99.90;;;;;;4942481;28;20035;-85
2022/01/04 05:36:39;;;;;;;4.82;3.47;;;7.10;99.90;;;;;;4959403;28;20041;-86
2022/01/04 05:39:05;;;;;;;5.03;3.40;;;7.10;99.90;;;;;;4961978;28;20045;-86
2022/01/04 05:41:31;;;;;;;5.28;3.70;;;7.10;99.90;;;;;;4963694;28;20045;-85
2022/01/04 05:43:57;;;;;;;7.82;4.97;;;7.20;99.90;;;;;;4956388;28;20117;-85
2022/01/04 05:46:22;;;;;;;7.80;4.57;;;7.10;99.90;;;;;;4948722;28;20190;-86
2022/01/04 05:48:48;;;;;;;5.82;4.32;;;7.10;99.90;;;;;;4953825;28;20121;-85
2022/01/04 05:51:13;;;;;;;5.93;3.58;;;7.20;99.90;;;;;;4968367;28;20042;-85
2022/01/04 05:53:39;;;;;;;7.30;4.82;;;7.10;99.90;;;;;;4954005;28;20038;-85
2022/01/04 05:56:05;;;;;;;7.93;5.47;;;7.10;99.90;;;;;;4965723;28;20023;-85
2022/01/04 05:58:31;;;;;;;7.55;5.25;;;7.10;99.90;;;;;;4967204;28;20031;-85
2022/01/04 06:00:59;;;;;;;8.27;4.75;;;7.00;99.90;;;;;;4951031;28;20403;-85
2022/01/04 06:03:25;;;;;;;9.00;5.18;;;7.10;99.90;;;;;;4949302;28;20043;-85
2022/01/04 06:05:51;;;;;;;12.95;6.35;;;7.10;99.90;;;;;;4966827;28;20069;-85
2022/01/04 06:08:17;;;;;;;6.38;4.18;;;7.10;99.90;;;;;;4944327;28;20031;-85
2022/01/04 06:10:44;;;;;;;7.60;4.40;;;7.10;99.90;;;;;;4960654;28;20038;-85
2022/01/04 06:15:38;;;;;;;7.38;4.60;;;7.10;99.90;;;;;;4966091;28;20046;-85
2022/01/04 06:18:04;;;;;;;7.10;4.47;;;7.10;99.90;;;;;;4950259;28;20375;-85
2022/01/04 06:20:29;;;;;;;7.80;4.00;;;7.10;99.90;;;;;;4966833;28;20037;-85
2022/01/04 06:22:55;;;;;;;7.53;4.00;;;7.10;99.90;;;;;;4964379;28;20033;-85
2022/01/04 06:25:21;;;;;;;9.10;4.60;;;7.10;99.90;;;;;;4945950;28;20043;-85
2022/01/04 06:27:49;;;;;;;6.07;4.57;;;7.10;99.90;;;;;;4951967;28;20086;-86
2022/01/04 06:30:15;;;;;;;11.10;5.57;;;7.10;99.90;;;;;;4950561;28;20027;-86
2022/01/04 06:32:44;;;;;;;4.03;2.42;;;7.10;99.90;;;;;;4980067;28;20041;-85
2022/01/04 06:35:10;;;;;;;10.05;5.28;;;7.10;99.90;;;;;;4944516;28;20039;-86
2022/01/04 06:37:36;;;;;;;10.25;4.65;;;7.10;99.90;;;;;;4954159;28;20513;-85
2022/01/04 06:40:02;;;;;;;2.80;1.75;;;7.10;99.90;;;;;;4946060;28;20038;-85
2022/01/04 06:42:28;;;;;;;8.48;3.35;;;7.10;99.90;;;;;;4950810;28;20169;-85
2022/01/04 06:44:53;;;;;;;5.90;3.78;;;7.10;99.90;;;;;;4954281;28;23468;-85
2022/01/04 06:47:19;;;;;;;11.65;5.85;;;7.10;99.90;;;;;;4967928;28;20165;-85
2022/01/04 06:49:45;;;;;;;10.45;5.68;;;7.10;99.90;;;;;;4963876;28;20045;-85
2022/01/04 06:52:10;;;;;;;12.10;6.45;;;7.10;99.90;;;;;;4962810;28;20041;-85
2022/01/04 06:54:36;;;;;;;10.45;5.22;;;7.10;99.90;;;;;;4967197;28;20030;-85
2022/01/04 06:57:02;;;;;;;8.82;5.25;;;7.10;99.90;;;;;;4948163;28;20065;-87
2022/01/04 06:59:27;;;;;;;8.18;4.38;;;7.10;99.90;;;;;;4950831;28;20522;-86
2022/01/04 07:01:53;;;;;;;10.07;5.22;;;7.10;99.90;;;;;;4960490;28;20030;-85
2022/01/04 07:04:19;;;;;;;10.45;5.68;;;7.10;99.90;;;;;;4982403;28;20462;-86
2022/01/04 07:06:45;;;;;;;12.48;6.72;;;7.10;99.90;;;;;;4948000;28;20018;-86
2022/01/04 07:09:10;;;;;;;11.40;5.70;;;7.10;99.90;;;;;;4940731;28;20118;-86
2022/01/04 07:11:36;;;;;;;12.43;6.85;;;7.10;99.90;;;;;;4950105;28;20150;-86
2022/01/04 07:14:02;;;;;;;12.02;6.95;;;7.10;99.90;;;;;;4950115;28;20883;-86
2022/01/04 07:16:28;;;;;;;11.10;6.32;;;7.10;99.90;;;;;;4946120;28;20031;-86
2022/01/04 07:18:55;;;;;;;10.40;6.25;;;7.10;99.90;;;;;;4955589;28;20451;-86
2022/01/04 07:21:20;;;;;;;11.65;4.72;;;7.10;99.90;;;;;;4963327;28;20467;-87
2022/01/04 07:23:48;;;;;;;12.25;7.80;;;7.10;99.90;;;;;;4961246;28;20066;-86
2022/01/04 07:26:14;;;;;;;10.93;6.18;;;7.10;99.90;;;;;;4969630;28;20637;-86
2022/01/04 07:28:45;;;;;;;13.95;7.38;;;7.10;99.90;;;;;;4950915;28;20038;-86
2022/01/04 07:31:10;;;;;;;18.13;7.25;;;7.10;99.90;;;;;;4951479;28;20036;-86
2022/01/04 07:33:36;;;;;;;10.32;6.10;;;7.00;99.90;;;;;;4967143;28;20034;-86
2022/01/04 07:36:02;;;;;;;14.18;7.95;;;7.10;99.90;;;;;;4948633;28;20158;-86
2022/01/04 07:38:28;;;;;;;14.40;6.95;;;7.10;99.90;;;;;;4953112;28;20470;-86
2022/01/04 07:40:53;;;;;;;13.30;7.57;;;7.10;99.90;;;;;;4945366;28;20030;-86
2022/01/04 07:43:19;;;;;;;11.93;7.18;;;7.10;99.90;;;;;;4951232;28;20046;-85
2022/01/04 07:45:44;;;;;;;15.13;8.70;;;7.10;99.90;;;;;;4955769;28;20053;-86
2022/01/04 07:48:10;;;;;;;17.48;8.80;;;7.00;99.90;;;;;;4965525;28;20035;-84
2022/01/04 07:50:42;;;;;;;17.95;9.77;;;7.00;99.90;;;;;;4985976;28;20097;-85
2022/01/04 07:53:08;;;;;;;16.08;7.85;;;7.00;99.90;;;;;;4951869;28;20042;-85
2022/01/04 07:55:34;;;;;;;15.43;6.78;;;7.10;99.90;;;;;;4954893;28;20089;-86
2022/01/04 07:57:59;;;;;;;13.73;8.05;;;7.00;99.90;;;;;;4947837;28;20027;-86
2022/01/04 08:00:25;;;;;;;15.02;8.68;;;7.00;99.90;;;;;;4960577;28;20038;-85
2022/01/04 08:02:51;;;;;;;16.42;9.23;;;7.00;99.90;;;;;;4951690;28;20033;-86
2022/01/04 08:05:17;;;;;;;16.42;8.55;;;7.00;99.90;;;;;;4953035;28;20121;-87
2022/01/04 08:07:43;;;;;;;15.63;9.32;;;7.00;99.90;;;;;;4961816;28;20174;-87
2022/01/04 08:10:09;;;;;;;17.48;9.23;;;6.90;99.90;;;;;;4954369;28;20061;-87
2022/01/04 08:12:35;;;;;;;15.23;8.43;;;6.90;99.90;;;;;;4947606;28;20654;-86
2022/01/04 08:15:02;;;;;;;18.15;9.38;;;7.00;99.90;;;;;;4955232;28;21010;-87
2022/01/04 08:17:29;;;;;;;16.10;8.05;;;6.90;99.90;;;;;;4966097;28;20037;-86
2022/01/04 08:19:54;;;;;;;14.43;8.18;;;7.00;99.90;;;;;;4939607;28;20041;-87
2022/01/04 08:22:20;;;;;;;15.80;8.98;;;7.00;99.90;;;;;;4978489;28;20086;-86
2022/01/04 08:24:45;;;;;;;17.10;9.55;;;6.90;99.90;;;;;;4955364;28;20065;-86
2022/01/04 08:27:11;;;;;;;13.23;7.43;;;6.90;99.90;;;;;;4962215;28;20069;-86
2022/01/04 08:29:36;;;;;;;15.63;9.38;;;7.00;99.90;;;;;;4965213;28;20038;-87
2022/01/04 08:32:02;;;;;;;16.60;8.32;;;7.00;99.90;;;;;;4954081;28;20031;-87
2022/01/04 08:34:29;;;;;;;14.82;8.32;;;6.90;99.90;;;;;;4954637;28;20042;-86
2022/01/04 08:36:55;;;;;;;13.57;7.60;;;7.00;99.90;;;;;;4951047;28;20425;-87
2022/01/04 08:39:20;;;;;;;15.70;7.95;;;7.00;99.90;;;;;;4958915;28;20118;-88
2022/01/04 08:41:46;;;;;;;17.80;8.43;;;7.00;99.90;;;;;;4949404;28;20112;-87
2022/01/04 08:44:12;;;;;;;15.40;6.47;;;7.00;99.90;;;;;;4950995;28;20022;-87
2022/01/04 08:46:38;;;;;;;13.98;7.82;;;7.00;99.90;;;;;;4964909;28;20132;-88
2022/01/04 08:49:07;;;;;;;17.08;9.15;;;7.00;99.90;;;;;;4948367;28;20037;-87
2022/01/04 08:51:32;;;;;;;7.13;4.25;;;7.00;99.90;;;;;;4965904;28;20046;-88
2022/01/04 08:53:58;;;;;;;18.27;9.63;;;7.00;99.90;;;;;;4963250;28;20724;-88
2022/01/04 08:56:24;;;;;;;18.13;8.85;;;7.00;99.90;;;;;;4947154;28;20034;-88
2022/01/04 08:58:49;;;;;;;10.70;5.75;;;7.00;99.90;;;;;;4961311;28;20258;-88
2022/01/04 09:01:15;;;;;;;11.98;6.90;;;7.00;99.90;;;;;;4950439;28;20666;-87
2022/01/04 09:03:40;;;;;;;12.43;5.40;;;7.00;99.90;;;;;;4964522;28;20057;-87
2022/01/04 09:06:08;;;;;;;13.18;6.88;;;7.00;99.90;;;;;;4961274;28;20034;-87
2022/01/04 09:08:33;;;;;;;16.90;8.45;;;7.00;99.90;;;;;;4948832;28;20042;-88
2022/01/04 09:11:00;;;;;;;18.20;8.98;;;7.00;99.90;;;;;;4943704;28;20034;-87
2022/01/04 09:13:32;;;;;;;17.42;7.90;;;7.00;99.90;;;;;;4957387;28;20066;-87
2022/01/04 09:18:46;;;;;;;9.05;4.70;;;7.00;99.90;;;;;;4960920;28;20414;-89
2022/01/04 09:21:19;;;;;;;11.38;5.85;;;7.00;99.90;;;;;;4964954;28;20275;-89
2022/01/04 09:23:45;;;;;;;16.05;8.73;;;7.00;99.90;;;;;;4953014;28;20502;-88
2022/01/04 09:26:11;;;;;;;15.35;7.28;;;7.00;99.90;;;;;;4962656;28;20098;-87
2022/01/04 09:28:37;;;;;;;17.75;9.35;;;7.00;99.90;;;;;;4951185;28;20030;-87
2022/01/04 09:31:02;;;;;;;8.20;4.25;;;7.10;99.90;;;;;;4949777;28;20042;-88
2022/01/04 09:33:28;;;;;;;15.77;7.70;;;7.00;99.90;;;;;;4948399;28;20121;-88
2022/01/04 09:35:54;;;;;;;17.25;8.13;;;7.00;99.90;;;;;;4951315;28;20034;-87
2022/01/04 09:38:20;;;;;;;11.55;6.18;;;7.10;99.90;;;;;;4949397;28;20483;-87
2022/01/04 09:40:46;;;;;;;17.85;9.18;;;7.00;99.90;;;;;;4948180;28;20038;-88
2022/01/04 09:43:11;;;;;;;15.48;8.82;;;7.10;99.90;;;;;;4964510;28;20046;-86
2022/01/04 09:45:38;;;;;;;15.77;9.60;;;7.00;99.90;;;;;;4949623;28;20284;-88
2022/01/04 09:48:04;;;;;;;16.67;9.15;;;7.00;99.90;;;;;;4950139;28;20161;-88
2022/01/04 09:50:33;;;;;;;13.20;8.02;;;7.10;99.90;;;;;;4960676;28;20066;-87
2022/01/04 09:52:59;;;;;;;20.77;10.85;;;7.10;99.90;;;;;;4948315;28;20513;-87
2022/01/04 09:55:24;;;;;;;12.07;5.68;;;7.10;99.90;;;;;;4952795;28;20038;-87
2022/01/04 09:57:50;;;;;;;16.02;8.70;;;7.10;99.90;;;;;;4943516;28;20042;-88
2022/01/04 10:00:17;;;;;;;15.60;8.10;;;7.10;99.90;;;;;;4947115;28;20154;-87
2022/01/04 10:02:47;;;;;;;14.63;7.47;;;7.10;99.90;;;;;;4958753;28;20104;-87
2022/01/04 10:05:16;;;;;;;13.82;8.77;;;7.10;99.90;;;;;;4964329;28;20127;-87
2022/01/04 10:07:42;;;;;;;12.77;7.63;;;7.10;99.90;;;;;;4982879;28;20041;-88
2022/01/04 10:10:16;;;;;;;15.15;8.68;;;7.20;99.90;;;;;;4947732;28;20046;-87
2022/01/04 10:13:02;;;;;;;10.05;4.05;;;7.20;99.90;;;;;;4959342;28;20030;-87
2022/01/04 10:15:37;;;;;;;11.95;7.45;;;7.20;99.90;;;;;;4962243;28;20050;-88
2022/01/04 10:18:24;;;;;;;6.78;4.22;;;7.20;99.90;;;;;;4962525;28;20035;-87
2022/01/04 10:20:52;;;;;;;13.13;7.38;;;7.20;99.90;;;;;;4975809;28;20034;-87
2022/01/04 10:23:23;;;;;;;8.30;4.57;;;7.10;99.90;;;;;;4962670;28;20062;-87
2022/01/04 10:25:49;;;;;;;11.80;7.20;;;7.20;99.90;;;;;;4949771;28;20042;-87
2022/01/04 10:28:32;;;;;;;12.43;7.82;;;7.20;99.90;;;;;;4952243;28;20034;-87
2022/01/04 10:31:05;;;;;;;8.25;5.20;;;7.20;99.90;;;;;;4968525;28;20031;-87
2022/01/04 10:33:34;;;;;;;9.10;5.30;;;7.10;99.90;;;;;;4953517;28;20506;-86
2022/01/04 10:36:00;;;;;;;13.90;6.75;;;7.20;99.90;;;;;;4932982;28;20030;-87
2022/01/04 10:38:29;;;;;;;9.82;3.80;;;7.20;99.90;;;;;;4942481;28;20038;-87
2022/01/04 10:41:16;;;;;;;13.35;6.90;;;7.20;99.90;;;;;;4982383;28;20499;-87
2022/01/04 10:43:45;;;;;;;10.55;4.32;;;7.20;99.90;;;;;;4987528;28;20039;-87
2022/01/04 10:46:12;;;;;;;13.63;4.57;;;7.10;99.90;;;;;;4955966;28;20053;-87
2022/01/04 10:48:41;;;;;;;9.63;5.38;;;7.20;99.90;;;;;;4945608;28;20038;-87
2022/01/04 10:51:06;;;;;;;14.63;5.07;;;7.20;99.90;;;;;;4969417;28;20380;-86
2022/01/04 10:53:48;;;;;;;17.45;8.85;;;7.20;99.90;;;;;;4979850;28;20053;-87
2022/01/04 10:56:23;;;;;;;14.65;7.95;;;7.20;99.90;;;;;;4958109;28;20034;-86
2022/01/04 10:58:50;;;;;;;11.13;7.00;;;7.10;99.90;;;;;;4978481;28;20579;-86
2022/01/04 11:01:21;;;;;;;6.85;3.97;;;7.10;99.90;;;;;;4964088;28;20042;-87
2022/01/04 11:03:53;;;;;;;14.52;8.45;;;7.20;99.90;;;;;;4607825;28;10000151;-87
2022/01/04 11:06:29;;;;;;;15.85;8.27;;;7.20;99.90;;;;;;4951253;28;20061;-87
2022/01/04 11:08:57;;;;;;;14.18;5.55;;;7.20;99.90;;;;;;4950136;28;20125;-87
2022/01/04 11:11:24;;;;;;;9.07;4.85;;;7.20;99.90;;;;;;4965988;28;20522;-87
2022/01/04 11:13:51;;;;;;;11.57;8.40;;;7.20;99.90;;;;;;4941262;28;20228;-87
2022/01/04 11:16:19;;;;;;;10.77;5.50;;;7.20;99.90;;;;;;4942027;28;20062;-86
2022/01/04 11:18:49;;;;;;;10.55;7.10;;;7.20;99.90;;;;;;4956188;28;20034;-87
2022/01/04 11:21:14;;;;;;;13.45;8.43;;;7.30;99.90;;;;;;4943751;28;20039;-87
2022/01/04 11:23:40;;;;;;;11.73;6.65;;;7.30;99.90;;;;;;4944492;28;20874;-87
2022/01/04 11:26:06;;;;;;;8.00;3.67;;;7.30;99.90;;;;;;4975409;28;20038;-87
2022/01/04 11:28:34;;;;;;;9.75;5.38;;;7.20;99.90;;;;;;4947074;28;20870;-88
2022/01/04 11:31:19;;;;;;;4.80;3.25;;;7.30;99.90;;;;;;4950507;28;20123;-87
2022/01/04 11:34:22;;;;;;;8.98;5.35;;;7.30;99.90;;;;;;4976726;28;20142;-87
2022/01/04 11:36:50;;;;;;;13.65;9.07;;;7.30;99.90;;;;;;4964319;28;20054;-87
2022/01/04 11:39:30;;;;;;;12.52;8.55;;;7.30;99.90;;;;;;4962188;28;20042;-87
2022/01/04 11:41:57;;;;;;;13.77;8.60;;;7.30;99.90;;;;;;4947029;28;20039;-87
2022/01/04 11:44:27;;;;;;;13.40;8.07;;;7.30;99.90;;;;;;4961971;28;20096;-87
2022/01/04 11:47:01;;;;;;;12.73;8.90;;;7.30;99.90;;;;;;4950394;28;20027;-87
2022/01/04 11:49:27;;;;;;;16.80;10.15;;;7.30;99.90;;;;;;4983572;28;20026;-87
2022/01/04 11:51:52;;;;;;;7.85;4.47;;;7.40;99.90;;;;;;4953173;28;20053;-88
2022/01/04 11:54:27;;;;;;;13.13;8.20;;;7.40;99.90;;;;;;4950133;28;20671;-87
2022/01/04 11:57:00;;;;;;;14.02;9.18;;;7.40;99.90;;;;;;4948035;28;20031;-87
2022/01/04 11:59:44;;;;;;;13.02;6.35;;;7.40;99.90;;;;;;4953803;28;20114;-87
2022/01/04 12:02:28;;;;;;;14.15;8.45;;;7.50;99.90;;;;;;4946791;28;20189;-86
2022/01/04 12:05:00;;;;;;;12.98;8.10;;;7.50;99.90;;;;;;4959990;28;20018;-87
2022/01/04 12:07:44;;;;;;;12.38;8.13;;;7.50;99.90;;;;;;4963757;28;20027;-87
2022/01/04 12:10:22;;;;;;;11.95;6.63;;;7.50;99.90;;;;;;4964630;28;20524;-87
2022/01/04 12:13:14;;;;;;;15.13;9.48;;;7.50;99.90;;;;;;4985662;28;20495;-86
2022/01/04 12:15:57;;;;;;;9.60;5.13;;;7.50;99.90;;;;;;4963232;28;20089;-87
2022/01/04 12:18:22;;;;;;;9.40;5.50;;;7.50;99.90;;;;;;4964751;28;20037;-86
2022/01/04 12:20:57;;;;;;;15.10;7.25;;;7.50;99.90;;;;;;4983502;28;20026;-86
2022/01/04 12:23:25;;;;;;;17.10;11.60;;;7.50;99.90;;;;;;4952226;28;20045;-87
2022/01/04 12:26:03;;;;;;;14.65;8.55;;;7.50;99.90;;;;;;4985492;28;20041;-86
2022/01/04 12:28:39;;;;;;;14.20;6.85;;;7.50;99.90;;;;;;4978755;28;20109;-87
2022/01/04 12:31:17;;;;;;;18.45;10.13;;;7.50;99.90;;;;;;4952098;28;20089;-87
2022/01/04 12:33:44;;;;;;;17.38;9.73;;;7.50;99.90;;;;;;4974141;28;20038;-86
2022/01/04 12:36:35;;;;;;;11.93;6.65;;;7.50;99.90;;;;;;4956378;28;20034;-86
2022/01/04 12:39:04;;;;;;;17.15;8.05;;;7.50;99.90;;;;;;4968334;28;20049;-87
2022/01/04 12:41:33;;;;;;;21.77;9.30;;;7.50;99.90;;;;;;4960539;28;20085;-86
2022/01/04 12:43:58;;;;;;;15.85;10.15;;;7.50;99.90;;;;;;4949474;28;20029;-86
2022/01/04 12:46:28;;;;;;;24.35;12.60;;;7.50;99.90;;;;;;4950606;28;20034;-87
2022/01/04 12:48:56;;;;;;;13.82;7.82;;;7.50;99.90;;;;;;4959493;28;20027;-86
2022/01/04 12:51:25;;;;;;;17.23;9.98;;;7.50;99.90;;;;;;4976114;28;20035;-87
2022/01/04 12:53:52;;;;;;;19.70;10.52;;;7.50;99.90;;;;;;4967746;28;20030;-87
2022/01/04 12:56:17;;;;;;;10.35;4.13;;;7.50;99.90;;;;;;4947541;28;20030;-87
2022/01/04 12:58:43;;;;;;;15.65;8.48;;;7.50;99.90;;;;;;4964566;28;20471;-87
2022/01/04 13:01:12;;;;;;;18.27;7.97;;;7.50;99.90;;;;;;4944462;28;20046;-86